Terminal Aerodrome Forecast
Issued by NWS Twin Cities, MN

Home | Current Version | Previous Version | Text Only | Print | Product List | Glossary Off
Versions: 1 2 3 4 5 6 7 8 9 10 11 12 13 14 15 16

919
FTUS43 KMPX 111739
TAFSTC
TAF
KSTC 111739Z 1118/1218 18005KT P6SM OVC045
     FM112300 21005KT P6SM OVC025
     FM120300 27004KT P6SM OVC020
     FM120600 31007KT P6SM BKN050
     FM121000 32014G21KT P6SM SKC=

USA.gov is the U.S. government's official web portal to all federal, state and local government web resources and services.